createdAt,value
2022-07-31T00:00:50.439Z,7.30
2022-07-31T00:03:18.401Z,8.00
2022-07-31T00:05:46.367Z,7.90
2022-07-31T00:08:15.305Z,10.40
2022-07-31T00:10:43.349Z,7.80
2022-07-31T00:13:11.451Z,6.80
2022-07-31T00:15:39.557Z,7.80
2022-07-31T00:18:08.896Z,8.00
2022-07-31T00:20:37.074Z,8.90
2022-07-31T00:23:05.041Z,7.80
2022-07-31T00:25:33.634Z,8.20
2022-07-31T00:28:01.635Z,8.50
2022-07-31T00:30:29.668Z,5.60
2022-07-31T00:32:57.588Z,10.00
2022-07-31T00:35:25.514Z,7.60
2022-07-31T00:37:58.168Z,7.40
2022-07-31T00:40:48.448Z,7.00
2022-07-31T00:43:18.649Z,10.20
2022-07-31T00:45:49.365Z,7.90
2022-07-31T00:48:27.589Z,7.20
2022-07-31T00:50:56.501Z,7.80
2022-07-31T00:53:24.707Z,7.20
2022-07-31T00:55:52.701Z,9.10
2022-07-31T00:58:21.079Z,6.70
2022-07-31T01:00:49.588Z,8.80
2022-07-31T01:03:18.850Z,6.60
2022-07-31T01:05:46.946Z,6.50
2022-07-31T01:08:15.711Z,9.20
2022-07-31T01:11:11.167Z,8.50
2022-07-31T01:13:51.665Z,6.30
2022-07-31T01:16:22.245Z,6.30
2022-07-31T01:18:52.195Z,6.60
2022-07-31T01:21:29.197Z,6.20
2022-07-31T01:24:12.520Z,6.10
2022-07-31T01:27:06.550Z,6.80
2022-07-31T01:29:44.494Z,8.00
2022-07-31T01:32:35.939Z,5.60
2022-07-31T01:35:16.103Z,7.90
2022-07-31T01:37:50.671Z,5.60
2022-07-31T01:40:37.059Z,7.10
2022-07-31T01:43:29.830Z,8.70
2022-07-31T01:46:01.078Z,10.30
2022-07-31T01:48:32.668Z,7.00
2022-07-31T01:51:03.146Z,7.20
2022-07-31T01:53:32.245Z,6.40
2022-07-31T01:56:03.236Z,6.70
2022-07-31T01:58:38.403Z,5.50
2022-07-31T02:01:15.913Z,6.70
2022-07-31T02:03:45.732Z,6.70
2022-07-31T02:06:19.122Z,8.20
2022-07-31T02:08:50.638Z,7.50
2022-07-31T02:11:20.084Z,9.30
2022-07-31T02:13:49.211Z,8.70
2022-07-31T02:16:19.737Z,7.80
2022-07-31T02:18:53.656Z,10.30
2022-07-31T02:21:27.027Z,9.30
2022-07-31T02:23:55.093Z,10.70
2022-07-31T02:26:24.847Z,10.10
2022-07-31T02:28:53.749Z,8.60
2022-07-31T02:31:24.429Z,8.20
2022-07-31T02:33:53.753Z,10.90
2022-07-31T02:36:23.608Z,12.20
2022-07-31T02:38:55.124Z,10.50
2022-07-31T02:41:25.188Z,10.60
2022-07-31T02:43:53.779Z,11.60
2022-07-31T02:46:23.355Z,12.10
2022-07-31T02:48:52.067Z,8.40
2022-07-31T02:51:23.089Z,11.30
2022-07-31T02:53:52.318Z,9.30
2022-07-31T02:56:23.739Z,10.00
2022-07-31T02:58:53.570Z,9.30
2022-07-31T03:01:25.559Z,8.60
2022-07-31T03:03:54.046Z,9.10
2022-07-31T03:06:21.989Z,8.20
2022-07-31T03:08:50.013Z,10.10
2022-07-31T03:11:21.749Z,8.60
2022-07-31T03:13:51.073Z,9.80
2022-07-31T03:16:19.551Z,9.50
2022-07-31T03:18:48.928Z,10.30
2022-07-31T03:21:19.326Z,11.50
2022-07-31T03:23:47.842Z,9.60
2022-07-31T03:26:20.787Z,9.80
2022-07-31T03:28:49.107Z,13.90
2022-07-31T03:31:17.241Z,13.40
2022-07-31T03:33:45.603Z,11.10
2022-07-31T03:36:15.057Z,13.40
2022-07-31T03:38:46.482Z,9.50
2022-07-31T03:41:25.114Z,9.50
2022-07-31T03:43:54.155Z,12.30
2022-07-31T03:46:24.737Z,13.40
2022-07-31T03:48:53.312Z,11.50
2022-07-31T03:51:23.601Z,10.60
2022-07-31T03:53:52.109Z,11.60
2022-07-31T03:56:39.756Z,9.70
2022-07-31T03:59:08.268Z,10.80
2022-07-31T04:01:57.219Z,8.50
2022-07-31T04:04:40.906Z,8.10
2022-07-31T04:07:09.295Z,8.10
2022-07-31T04:09:38.697Z,8.30
2022-07-31T04:12:07.895Z,7.10
2022-07-31T04:14:36.128Z,10.40
2022-07-31T04:17:04.996Z,9.80
2022-07-31T04:19:33.566Z,8.70
2022-07-31T04:22:02.669Z,11.80
2022-07-31T04:24:32.099Z,10.00
2022-07-31T04:27:09.401Z,14.00
2022-07-31T04:29:44.953Z,10.00
2022-07-31T04:32:13.044Z,10.50
2022-07-31T04:34:53.743Z,12.80
2022-07-31T04:37:22.249Z,13.50
2022-07-31T04:39:50.733Z,12.50
2022-07-31T04:42:18.971Z,11.30
2022-07-31T04:44:47.088Z,13.10
2022-07-31T04:47:15.165Z,10.90
2022-07-31T04:49:46.146Z,9.20
2022-07-31T04:52:17.115Z,10.80
2022-07-31T04:54:47.367Z,10.90
2022-07-31T04:57:19.855Z,10.30
2022-07-31T04:59:59.265Z,10.30
2022-07-31T05:02:28.796Z,10.30
2022-07-31T05:04:57.586Z,14.30
2022-07-31T05:10:05.290Z,14.50
2022-07-31T05:12:33.298Z,10.30
2022-07-31T05:15:01.331Z,12.60
2022-07-31T05:17:29.403Z,11.40
2022-07-31T05:20:26.158Z,9.90
2022-07-31T05:23:06.761Z,12.00
2022-07-31T05:25:53.477Z,10.30
2022-07-31T05:28:29.587Z,11.00
2022-07-31T05:30:58.340Z,12.90
2022-07-31T05:33:26.652Z,10.70
2022-07-31T05:35:58.314Z,12.70
2022-07-31T05:38:27.182Z,13.10
2022-07-31T05:41:14.106Z,8.90
2022-07-31T05:44:00.740Z,8.80
2022-07-31T05:46:37.029Z,9.70
2022-07-31T05:49:05.362Z,9.20
2022-07-31T05:51:33.491Z,8.80
2022-07-31T05:54:02.155Z,7.80
2022-07-31T05:56:59.464Z,7.40
2022-07-31T05:59:41.094Z,8.30
2022-07-31T06:02:09.172Z,7.40
2022-07-31T06:04:55.834Z,7.20
2022-07-31T06:07:24.291Z,8.90
2022-07-31T06:09:52.862Z,11.40
2022-07-31T06:12:20.909Z,10.70
2022-07-31T06:14:50.082Z,9.80
2022-07-31T06:17:22.645Z,15.20
2022-07-31T06:19:50.846Z,11.30
2022-07-31T06:22:18.801Z,10.20
2022-07-31T06:24:47.162Z,7.70
2022-07-31T06:27:18.783Z,11.10
2022-07-31T06:30:03.249Z,11.10
2022-07-31T06:32:31.971Z,12.80
2022-07-31T06:35:00.244Z,8.50
2022-07-31T06:37:28.967Z,8.40
2022-07-31T06:40:00.437Z,8.60
2022-07-31T06:42:46.472Z,8.60
2022-07-31T06:45:29.842Z,8.10
2022-07-31T06:54:05.400Z,9.20
2022-07-31T06:56:35.489Z,8.50
2022-07-31T06:59:05.368Z,10.70
2022-07-31T07:01:34.101Z,12.90
2022-07-31T07:04:02.263Z,9.70
2022-07-31T07:06:30.519Z,21.90
2022-07-31T07:08:59.682Z,18.50
2022-07-31T07:11:27.909Z,17.90
2022-07-31T07:13:56.439Z,17.10
2022-07-31T07:16:24.468Z,45.60
2022-07-31T07:18:53.122Z,33.40
2022-07-31T07:21:24.125Z,30.30
2022-07-31T07:23:52.092Z,28.30
2022-07-31T07:26:26.016Z,29.00
2022-07-31T07:28:54.181Z,30.60
2022-07-31T07:31:22.943Z,30.10
2022-07-31T07:33:52.185Z,25.50
2022-07-31T07:36:24.915Z,24.90
2022-07-31T07:38:58.363Z,20.00
2022-07-31T07:41:27.021Z,15.60
2022-07-31T07:43:55.097Z,22.40
2022-07-31T07:46:25.575Z,17.40
2022-07-31T07:49:04.586Z,17.10
2022-07-31T07:51:59.013Z,12.60
2022-07-31T07:54:43.047Z,9.10
2022-07-31T07:57:23.135Z,10.00
2022-07-31T08:00:22.904Z,16.10
2022-07-31T08:03:46.745Z,10.30
2022-07-31T08:05:45.466Z,10.70
2022-07-31T08:08:13.675Z,6.90
2022-07-31T08:10:43.332Z,12.00
2022-07-31T08:13:27.075Z,7.50
2022-07-31T08:16:32.632Z,9.20
2022-07-31T08:19:01.876Z,6.40
2022-07-31T08:21:31.899Z,5.10
2022-07-31T08:23:59.797Z,4.50
2022-07-31T08:26:48.160Z,6.30
2022-07-31T08:29:16.846Z,5.00
2022-07-31T08:32:01.234Z,7.10
2022-07-31T08:34:53.787Z,5.40
2022-07-31T08:37:51.204Z,4.90
2022-07-31T08:40:11.177Z,7.00
2022-07-31T08:42:39.213Z,4.70
2022-07-31T08:45:08.301Z,4.70
2022-07-31T08:47:42.349Z,5.30
2022-07-31T08:50:16.306Z,4.30
2022-07-31T08:52:49.851Z,4.20
2022-07-31T08:55:24.649Z,4.70
2022-07-31T08:58:12.135Z,3.50
2022-07-31T09:00:43.217Z,4.10
2022-07-31T09:03:11.807Z,3.40
2022-07-31T09:05:43.030Z,3.60
2022-07-31T09:08:14.995Z,3.50
2022-07-31T09:10:49.953Z,3.50
2022-07-31T09:13:19.504Z,5.00
2022-07-31T09:15:48.607Z,3.60
2022-07-31T09:18:19.999Z,7.50
2022-07-31T09:21:09.532Z,2.80
2022-07-31T09:23:48.949Z,4.40
2022-07-31T09:26:17.410Z,3.30
2022-07-31T09:28:47.590Z,4.20
2022-07-31T09:31:15.853Z,4.50
2022-07-31T09:34:02.471Z,4.10
2022-07-31T09:37:08.284Z,3.30
2022-07-31T09:39:57.337Z,4.00
2022-07-31T09:42:55.266Z,3.20
2022-07-31T09:45:30.030Z,2.90
2022-07-31T09:48:14.451Z,3.60
2022-07-31T09:50:55.597Z,3.00
2022-07-31T09:53:24.908Z,3.40
2022-07-31T09:55:58.300Z,2.70
2022-07-31T09:58:26.781Z,4.80
2022-07-31T10:00:56.716Z,3.70
2022-07-31T10:03:26.946Z,4.40
2022-07-31T10:05:58.773Z,4.10
2022-07-31T10:08:29.169Z,3.60
2022-07-31T10:11:20.363Z,3.70
2022-07-31T10:14:00.074Z,3.90
2022-07-31T10:16:32.668Z,4.50
2022-07-31T10:19:35.163Z,4.40
2022-07-31T10:22:29.509Z,5.00
2022-07-31T10:25:01.804Z,6.00
2022-07-31T10:27:30.385Z,3.50
2022-07-31T10:30:05.752Z,7.70
2022-07-31T10:32:37.319Z,4.00
2022-07-31T10:35:25.357Z,3.00
2022-07-31T10:38:19.219Z,2.60
2022-07-31T10:41:36.259Z,5.70
2022-07-31T10:44:22.693Z,7.40
2022-07-31T10:47:20.060Z,6.30
2022-07-31T10:50:07.700Z,3.70
2022-07-31T10:53:16.720Z,4.00
2022-07-31T10:56:13.742Z,3.70
2022-07-31T10:59:03.546Z,3.30
2022-07-31T11:01:58.503Z,4.90
2022-07-31T11:05:07.539Z,3.90
2022-07-31T11:08:04.638Z,2.50
2022-07-31T11:13:56.174Z,4.70
2022-07-31T11:16:52.399Z,4.10
2022-07-31T11:19:44.119Z,2.40
2022-07-31T11:22:31.369Z,4.40
2022-07-31T11:25:01.001Z,4.00
2022-07-31T11:27:32.860Z,2.90
2022-07-31T11:30:10.634Z,3.90
2022-07-31T11:32:47.462Z,2.70
2022-07-31T11:35:28.619Z,4.70
2022-07-31T11:37:59.915Z,3.70
2022-07-31T11:40:28.570Z,4.20
2022-07-31T11:43:25.140Z,2.80
2022-07-31T11:45:55.221Z,3.90
2022-07-31T11:48:27.923Z,2.90
2022-07-31T11:50:56.226Z,2.40
2022-07-31T11:53:24.369Z,2.50
2022-07-31T11:55:54.974Z,3.60
2022-07-31T11:58:24.402Z,3.60
2022-07-31T12:00:54.006Z,3.40
2022-07-31T12:03:29.791Z,3.00
2022-07-31T12:05:57.772Z,2.20
2022-07-31T12:08:27.056Z,5.00
2022-07-31T12:10:57.013Z,4.70
2022-07-31T12:13:26.452Z,3.20
2022-07-31T12:16:09.031Z,5.10
2022-07-31T12:18:50.532Z,4.20
2022-07-31T12:21:19.572Z,3.20
2022-07-31T12:23:52.492Z,3.30
2022-07-31T12:26:27.411Z,3.70
2022-07-31T12:29:07.167Z,3.30
2022-07-31T12:31:52.422Z,2.90
2022-07-31T12:34:30.710Z,2.90
2022-07-31T12:37:07.936Z,5.70
2022-07-31T12:39:54.285Z,3.50
2022-07-31T12:42:36.416Z,1.60
2022-07-31T12:45:17.946Z,4.00
2022-07-31T12:47:54.290Z,4.10
2022-07-31T12:50:24.574Z,2.80
2022-07-31T12:52:53.486Z,3.10
2022-07-31T12:55:22.524Z,2.10
2022-07-31T12:57:52.224Z,3.00
2022-07-31T13:00:25.475Z,6.40
2022-07-31T13:02:55.389Z,4.60
2022-07-31T13:05:24.286Z,4.10
2022-07-31T13:07:52.855Z,5.40
2022-07-31T13:10:24.767Z,3.70
2022-07-31T13:12:53.648Z,5.40
2022-07-31T13:15:29.998Z,4.00
2022-07-31T13:18:02.090Z,3.10
2022-07-31T13:20:31.227Z,2.50
2022-07-31T13:23:00.372Z,2.40
2022-07-31T13:25:30.861Z,2.00
2022-07-31T13:27:59.914Z,8.10
2022-07-31T13:30:28.867Z,3.00
2022-07-31T13:32:56.945Z,5.40
2022-07-31T13:35:28.813Z,2.80
2022-07-31T13:37:57.737Z,5.00
2022-07-31T13:40:44.804Z,3.00
2022-07-31T13:43:13.269Z,2.90
2022-07-31T13:45:41.712Z,1.80
2022-07-31T13:48:10.351Z,2.50
2022-07-31T13:50:42.238Z,2.10
2022-07-31T13:53:10.806Z,2.70
2022-07-31T13:55:39.303Z,3.20
2022-07-31T13:58:08.610Z,2.60
2022-07-31T14:00:37.332Z,2.90
2022-07-31T14:03:05.412Z,4.40
2022-07-31T14:05:39.900Z,3.30
2022-07-31T14:08:29.944Z,2.00
2022-07-31T14:10:59.037Z,2.40
2022-07-31T14:13:27.732Z,2.70
2022-07-31T14:15:56.080Z,2.20
2022-07-31T14:18:24.212Z,4.30
2022-07-31T14:20:52.304Z,3.60
2022-07-31T14:23:20.322Z,2.10
2022-07-31T14:25:54.590Z,2.90
2022-07-31T14:28:22.603Z,5.70
2022-07-31T14:30:50.532Z,2.50
2022-07-31T14:33:18.573Z,2.00
2022-07-31T14:35:54.830Z,2.30
2022-07-31T14:38:27.369Z,3.20
2022-07-31T14:40:56.120Z,1.50
2022-07-31T14:43:24.385Z,2.70
2022-07-31T14:45:52.574Z,2.80
2022-07-31T14:48:22.016Z,0.80
2022-07-31T14:50:50.010Z,1.50
2022-07-31T14:53:17.971Z,3.00
2022-07-31T14:55:45.966Z,2.10
2022-07-31T14:58:14.042Z,1.50
2022-07-31T15:00:42.076Z,3.30
2022-07-31T15:03:10.150Z,1.50
2022-07-31T15:06:48.565Z,2.40
2022-07-31T15:08:28.578Z,1.50
2022-07-31T15:10:56.666Z,3.30
2022-07-31T15:13:24.607Z,1.50
2022-07-31T15:15:52.619Z,1.90
2022-07-31T15:18:20.809Z,1.20
2022-07-31T15:20:54.380Z,4.70
2022-07-31T15:23:22.722Z,1.40
2022-07-31T15:25:50.719Z,1.00
2022-07-31T15:28:18.805Z,1.30
2022-07-31T15:30:46.839Z,3.70
2022-07-31T15:33:15.041Z,3.70
2022-07-31T15:35:43.045Z,2.10
2022-07-31T15:38:11.014Z,2.60
2022-07-31T15:40:38.934Z,6.10
2022-07-31T15:43:06.846Z,2.90
2022-07-31T15:45:34.991Z,4.10
2022-07-31T15:48:04.968Z,3.20
2022-07-31T15:50:37.132Z,3.10
2022-07-31T15:53:05.121Z,1.30
2022-07-31T15:55:33.166Z,3.60
2022-07-31T15:58:01.253Z,2.90
2022-07-31T16:00:29.506Z,2.80
2022-07-31T16:02:57.607Z,2.30
2022-07-31T16:05:35.885Z,2.80
2022-07-31T16:08:32.331Z,2.50
2022-07-31T16:10:55.721Z,2.40
2022-07-31T16:13:25.054Z,4.20
2022-07-31T16:15:53.282Z,1.60
2022-07-31T16:18:21.311Z,1.60
2022-07-31T16:20:49.798Z,2.60
2022-07-31T16:23:17.727Z,2.90
2022-07-31T16:25:45.586Z,2.60
2022-07-31T16:28:13.520Z,1.50
2022-07-31T16:30:42.456Z,2.30
2022-07-31T16:33:10.414Z,2.30
2022-07-31T16:35:39.559Z,1.90
2022-07-31T16:38:08.241Z,3.20
2022-07-31T16:40:36.369Z,2.50
2022-07-31T16:43:47.734Z,1.80
2022-07-31T16:45:55.220Z,3.70
2022-07-31T16:48:23.602Z,1.10
2022-07-31T16:50:52.996Z,2.20
2022-07-31T16:54:11.111Z,2.60
2022-07-31T16:56:17.796Z,3.30
2022-07-31T16:58:45.779Z,2.00
2022-07-31T17:01:57.906Z,1.70
2022-07-31T17:04:03.969Z,1.90
2022-07-31T17:06:36.200Z,1.30
2022-07-31T17:09:17.209Z,3.00
2022-07-31T17:11:50.652Z,3.00
2022-07-31T17:14:21.602Z,9.20
2022-07-31T17:16:51.009Z,4.60
2022-07-31T17:19:42.726Z,1.70
2022-07-31T17:22:17.946Z,3.00
2022-07-31T17:24:51.403Z,5.40
2022-07-31T17:27:21.437Z,2.00
2022-07-31T17:29:49.786Z,3.50
2022-07-31T17:32:17.880Z,1.70
2022-07-31T17:34:46.560Z,2.70
2022-07-31T17:37:14.637Z,3.70
2022-07-31T17:39:42.666Z,2.80
2022-07-31T17:42:10.795Z,3.10
2022-07-31T17:44:40.071Z,4.50
2022-07-31T17:47:08.714Z,4.50
2022-07-31T17:49:37.326Z,6.60
2022-07-31T17:52:05.645Z,3.40
2022-07-31T17:54:33.707Z,3.10
2022-07-31T17:57:02.112Z,5.50
2022-07-31T17:59:30.490Z,3.80
2022-07-31T18:02:04.038Z,5.40
2022-07-31T18:04:34.736Z,4.50
2022-07-31T18:07:04.712Z,8.70
2022-07-31T18:09:33.547Z,6.20
2022-07-31T18:12:02.109Z,9.80
2022-07-31T18:14:30.428Z,5.60
2022-07-31T18:16:58.407Z,9.80
2022-07-31T18:19:26.393Z,4.40
2022-07-31T18:21:54.691Z,4.60
2022-07-31T18:24:25.063Z,4.40
2022-07-31T18:26:54.056Z,5.60
2022-07-31T18:29:22.336Z,4.40
2022-07-31T18:31:50.386Z,3.20
2022-07-31T18:34:18.485Z,3.60
2022-07-31T18:36:47.912Z,5.00
2022-07-31T18:39:17.516Z,3.80
2022-07-31T18:41:48.814Z,6.00
2022-07-31T18:44:17.537Z,7.80
2022-07-31T18:46:45.709Z,11.00
2022-07-31T18:50:59.861Z,3.30
2022-07-31T18:52:02.908Z,10.50
2022-07-31T18:54:31.404Z,7.50
2022-07-31T18:56:59.611Z,5.90
2022-07-31T18:59:27.580Z,4.30
2022-07-31T19:01:55.921Z,4.10
2022-07-31T19:04:23.916Z,4.40
2022-07-31T19:06:54.472Z,4.80
2022-07-31T19:09:25.057Z,3.70
2022-07-31T19:11:55.810Z,6.40
2022-07-31T19:14:31.591Z,5.20
2022-07-31T19:17:00.689Z,3.60
2022-07-31T19:19:42.623Z,7.50
2022-07-31T19:22:16.787Z,4.70
2022-07-31T19:24:44.845Z,2.90
2022-07-31T19:27:12.784Z,3.50
2022-07-31T19:29:40.811Z,2.70
2022-07-31T19:32:09.017Z,4.00
2022-07-31T19:34:36.998Z,3.70
2022-07-31T19:37:05.937Z,2.70
2022-07-31T19:39:37.778Z,5.10
2022-07-31T19:42:10.928Z,3.20
2022-07-31T19:44:40.030Z,4.50
2022-07-31T19:47:08.125Z,6.60
2022-07-31T19:49:38.350Z,2.50
2022-07-31T19:52:07.996Z,3.70
2022-07-31T19:54:37.064Z,7.10
2022-07-31T19:57:05.372Z,4.10
2022-07-31T19:59:33.471Z,3.70
2022-07-31T20:02:01.648Z,5.00
2022-07-31T20:04:29.921Z,3.20
2022-07-31T20:06:57.841Z,3.00
2022-07-31T20:09:25.731Z,3.10
2022-07-31T20:11:53.801Z,6.20
2022-07-31T20:14:21.702Z,4.20
2022-07-31T20:16:49.642Z,3.60
2022-07-31T20:19:17.581Z,5.80
2022-07-31T20:21:45.530Z,4.50
2022-07-31T20:24:13.602Z,3.10
2022-07-31T20:26:41.570Z,4.00
2022-07-31T20:29:09.707Z,4.00
2022-07-31T20:31:37.902Z,3.30
2022-07-31T20:34:05.844Z,4.90
2022-07-31T20:36:33.864Z,7.80
2022-07-31T20:39:01.818Z,4.70
2022-07-31T20:41:29.806Z,5.80
2022-07-31T20:43:58.816Z,6.70
2022-07-31T20:46:27.937Z,7.20
2022-07-31T20:48:57.489Z,4.60
2022-07-31T20:51:25.408Z,3.00
2022-07-31T20:53:54.420Z,3.70
2022-07-31T20:56:22.835Z,4.60
2022-07-31T20:58:51.953Z,3.00
2022-07-31T21:01:22.080Z,4.70
2022-07-31T21:03:50.128Z,10.50
2022-07-31T21:06:19.451Z,2.50
2022-07-31T21:08:47.781Z,5.10
2022-07-31T21:11:15.815Z,4.50
2022-07-31T21:13:45.558Z,3.70
2022-07-31T21:16:13.995Z,5.10
2022-07-31T21:18:43.517Z,2.30
2022-07-31T21:21:12.027Z,2.40
2022-07-31T21:23:40.160Z,2.70
2022-07-31T21:26:08.528Z,3.10
2022-07-31T21:28:37.023Z,3.30
2022-07-31T21:31:05.547Z,4.50
2022-07-31T21:33:34.143Z,2.70
2022-07-31T21:36:02.711Z,4.70
2022-07-31T21:38:30.862Z,1.70
2022-07-31T21:40:59.315Z,1.60
2022-07-31T21:43:33.536Z,2.20
2022-07-31T21:46:22.606Z,3.30
2022-07-31T21:48:52.102Z,2.30
2022-07-31T21:51:20.335Z,5.10
2022-07-31T21:53:48.398Z,3.00
2022-07-31T21:56:16.348Z,3.40
2022-07-31T21:58:45.005Z,5.40
2022-07-31T22:01:15.340Z,4.80
2022-07-31T22:03:43.748Z,2.00
2022-07-31T22:06:30.113Z,3.70
2022-07-31T22:08:58.020Z,3.50
2022-07-31T22:11:26.020Z,2.90
2022-07-31T22:13:54.062Z,2.70
2022-07-31T22:16:22.118Z,1.50
2022-07-31T22:18:51.807Z,2.70
2022-07-31T22:21:19.819Z,3.40
2022-07-31T22:23:47.988Z,2.10
2022-07-31T22:26:16.472Z,5.30
2022-07-31T22:28:44.576Z,1.90
2022-07-31T22:31:12.927Z,2.20
2022-07-31T22:33:40.851Z,2.20
2022-07-31T22:36:09.128Z,3.00
2022-07-31T22:38:38.232Z,4.50
2022-07-31T22:41:06.614Z,4.20
2022-07-31T22:44:12.090Z,3.10
2022-07-31T22:46:23.566Z,7.00
2022-07-31T22:48:53.666Z,4.90
2022-07-31T22:51:21.675Z,2.70
2022-07-31T22:53:50.401Z,3.40
2022-07-31T22:56:18.488Z,3.20
2022-07-31T22:58:46.397Z,2.40
2022-07-31T23:01:14.356Z,2.20
2022-07-31T23:03:42.295Z,4.00
2022-07-31T23:06:31.845Z,2.80
2022-07-31T23:08:58.386Z,2.70
2022-07-31T23:11:27.389Z,2.70
2022-07-31T23:13:55.504Z,3.60
2022-07-31T23:16:23.467Z,3.90
2022-07-31T23:18:51.391Z,2.20
2022-07-31T23:21:19.842Z,2.50
2022-07-31T23:23:49.679Z,2.50
2022-07-31T23:26:19.205Z,4.80
2022-07-31T23:28:48.554Z,3.50
2022-07-31T23:31:17.379Z,5.00
2022-07-31T23:33:46.876Z,2.90
2022-07-31T23:36:15.923Z,6.00
2022-07-31T23:38:45.578Z,2.00
2022-07-31T23:41:14.039Z,2.60
2022-07-31T23:43:54.324Z,3.50
2022-07-31T23:46:26.939Z,5.50
2022-07-31T23:48:56.053Z,2.90
2022-07-31T23:51:24.240Z,2.50
2022-07-31T23:53:52.608Z,2.80
2022-07-31T23:56:20.938Z,2.10
2022-07-31T23:58:48.837Z,2.20
